Time;durP1;ratioP1;P1;durP2;ratioP2;P2;SDS_P1;SDS_P2;PMS_P1;PMS_P2;Temp;Humidity;BMP_temperature;BMP_pressure;BME280_temperature;BME280_humidity;BME280_pressure;Samples;Min_cycle;Max_cycle;Signal;HPM_P1;HPM_P2
2021/06/30 00:01:07;;;;;;;30.00;20.42;;;;;;;22.33;100.00;97154.16;5033158;28;20098;-79
2021/06/30 00:03:33;;;;;;;26.08;21.17;;;;;;;22.26;100.00;97156.72;5032613;28;20112;-79
2021/06/30 00:05:58;;;;;;;24.58;20.63;;;;;;;22.17;100.00;97148.78;5032731;28;20033;-78
2021/06/30 00:08:24;;;;;;;26.17;21.27;;;;;;;22.24;100.00;97166.13;5016314;28;20473;-79
2021/06/30 00:10:49;;;;;;;32.40;21.75;;;;;;;22.19;100.00;97158.47;5032984;28;20087;-79
2021/06/30 00:13:15;;;;;;;32.72;22.35;;;;;;;22.09;100.00;97161.38;5016545;28;20056;-79
2021/06/30 00:15:41;;;;;;;26.60;21.40;;;;;;;22.11;100.00;97166.69;5016107;28;20091;-79
2021/06/30 00:18:08;;;;;;;28.05;22.30;;;;;;;22.06;100.00;97171.78;5032774;28;20037;-79
2021/06/30 00:20:35;;;;;;;30.80;21.80;;;;;;;22.00;100.00;97165.16;5015904;28;20033;-79
2021/06/30 00:23:01;;;;;;;29.42;21.13;;;;;;;22.07;100.00;97177.06;5016182;28;20026;-79
2021/06/30 00:25:27;;;;;;;33.17;22.20;;;;;;;22.08;100.00;97170.59;5032563;28;20117;-79
2021/06/30 00:27:52;;;;;;;27.95;20.98;;;;;;;22.02;100.00;97168.59;5033843;28;20022;-79
2021/06/30 00:30:19;;;;;;;28.73;20.58;;;;;;;22.06;100.00;97159.00;5016376;28;20025;-79
2021/06/30 00:32:45;;;;;;;26.40;20.80;;;;;;;22.06;100.00;97158.16;5016188;28;20087;-79
2021/06/30 00:35:15;;;;;;;32.35;21.50;;;;;;;22.07;100.00;97160.72;5016105;28;20481;-79
2021/06/30 00:37:41;;;;;;;31.40;20.45;;;;;;;22.14;100.00;97167.19;5015574;28;20080;-78
2021/06/30 00:40:07;;;;;;;30.90;21.92;;;;;;;22.02;100.00;97165.00;5016007;28;20446;-79
2021/06/30 00:42:33;;;;;;;29.35;21.20;;;;;;;22.04;100.00;97165.66;5032062;28;20040;-79
2021/06/30 00:44:58;;;;;;;29.23;21.10;;;;;;;22.05;100.00;97161.94;5016032;28;20029;-79
2021/06/30 00:47:24;;;;;;;27.75;20.92;;;;;;;21.95;100.00;97173.03;5033337;28;20017;-79
2021/06/30 00:49:50;;;;;;;23.75;19.73;;;;;;;21.96;100.00;97161.13;5015389;28;20087;-79
2021/06/30 00:52:16;;;;;;;30.70;19.83;;;;;;;22.04;100.00;97171.97;5015713;28;20017;-78
2021/06/30 00:54:42;;;;;;;26.88;20.08;;;;;;;22.00;100.00;97170.63;5031396;28;20082;-79
2021/06/30 00:57:09;;;;;;;28.98;19.55;;;;;;;22.05;100.00;97172.81;5015119;28;20022;-79
2021/06/30 00:59:35;;;;;;;27.85;19.95;;;;;;;21.97;100.00;97176.41;5032007;28;20497;-79
2021/06/30 01:02:01;;;;;;;30.92;20.13;;;;;;;21.95;100.00;97173.03;5015238;28;20479;-79
2021/06/30 01:04:26;;;;;;;25.33;18.65;;;;;;;21.87;100.00;97159.38;5015440;28;20041;-79
2021/06/30 01:06:52;;;;;;;29.20;19.50;;;;;;;21.86;100.00;97168.59;5031742;28;20033;-79
2021/06/30 01:09:18;;;;;;;24.40;18.52;;;;;;;21.92;100.00;97178.81;5031688;28;20036;-78
2021/06/30 01:11:43;;;;;;;25.77;19.08;;;;;;;21.87;100.00;97164.00;5031679;28;20127;-79
2021/06/30 01:14:09;;;;;;;35.53;19.15;;;;;;;21.93;100.00;97169.59;5015662;28;20478;-79
2021/06/30 01:16:34;;;;;;;31.50;19.73;;;;;;;21.94;100.00;97167.75;5015336;28;20029;-79
2021/06/30 01:19:00;;;;;;;25.30;19.10;;;;;;;21.92;100.00;97167.06;5015415;28;20045;-79
2021/06/30 01:21:26;;;;;;;26.30;19.98;;;;;;;21.95;100.00;97170.31;5015597;28;20039;-79
2021/06/30 01:23:52;;;;;;;27.42;18.73;;;;;;;21.95;100.00;97178.47;5015397;28;20026;-79
2021/06/30 01:26:18;;;;;;;25.35;19.13;;;;;;;21.80;100.00;97166.56;5031854;28;20481;-79
2021/06/30 01:28:44;;;;;;;27.20;18.98;;;;;;;21.85;100.00;97182.38;5032078;28;20021;-79
2021/06/30 01:31:09;;;;;;;25.27;19.05;;;;;;;21.72;100.00;97177.47;5031584;28;20055;-79
2021/06/30 01:33:35;;;;;;;31.45;20.35;;;;;;;21.63;100.00;97181.22;5014919;28;20025;-78
2021/06/30 01:36:02;;;;;;;29.73;19.27;;;;;;;21.64;100.00;97172.03;5014946;28;20033;-78
2021/06/30 01:38:29;;;;;;;26.65;19.95;;;;;;;21.60;100.00;97173.41;5014911;28;20459;-78
2021/06/30 01:40:56;;;;;;;26.30;19.00;;;;;;;21.55;100.00;97164.91;5014619;28;20036;-78
2021/06/30 01:43:22;;;;;;;23.20;19.98;;;;;;;21.54;100.00;97179.53;5031570;28;20024;-78
2021/06/30 01:45:52;;;;;;;28.48;19.80;;;;;;;21.49;100.00;97174.63;5031269;28;20034;-78
2021/06/30 01:48:18;;;;;;;29.27;20.38;;;;;;;21.37;100.00;97173.28;5014735;28;20033;-78
2021/06/30 01:50:44;;;;;;;26.50;20.20;;;;;;;21.43;100.00;97172.59;5014635;28;20033;-78
2021/06/30 01:53:10;;;;;;;27.30;19.52;;;;;;;21.41;100.00;97174.59;5031339;28;20485;-78
2021/06/30 01:55:35;;;;;;;26.70;19.33;;;;;;;21.35;100.00;97175.28;5014704;28;20068;-79
2021/06/30 01:58:01;;;;;;;32.00;21.02;;;;;;;21.25;100.00;97177.38;5030969;28;20032;-78
2021/06/30 02:00:27;;;;;;;33.20;20.98;;;;;;;21.36;100.00;97177.00;5014451;28;20048;-80
2021/06/30 02:02:52;;;;;;;29.55;19.67;;;;;;;21.44;100.00;97184.34;5014032;28;20037;-78
2021/06/30 02:05:21;;;;;;;31.65;20.58;;;;;;;21.43;100.00;97167.16;5014152;28;20025;-79
2021/06/30 02:07:59;;;;;;;28.42;20.30;;;;;;;21.45;100.00;97186.88;5030348;28;20061;-79
2021/06/30 02:10:25;;;;;;;26.08;19.67;;;;;;;21.41;100.00;97174.59;5014493;28;20104;-79
2021/06/30 02:12:51;;;;;;;34.67;20.50;;;;;;;21.40;100.00;97178.38;5030840;28;20079;-79
2021/06/30 02:15:23;;;;;;;32.55;20.38;;;;;;;21.31;100.00;97178.53;5031792;28;20021;-78
2021/06/30 02:17:49;;;;;;;30.40;20.60;;;;;;;21.40;100.00;97178.38;5014007;28;20033;-79
2021/06/30 02:20:15;;;;;;;29.50;20.50;;;;;;;21.35;100.00;97179.91;5030388;28;20113;-79
2021/06/30 02:22:42;;;;;;;29.83;19.73;;;;;;;21.26;100.00;97187.19;5030483;28;20025;-80
2021/06/30 02:25:09;;;;;;;23.23;18.90;;;;;;;21.31;100.00;97194.88;5030545;28;20025;-78
2021/06/30 02:27:34;;;;;;;29.60;20.42;;;;;;;21.21;100.00;97186.03;5013865;28;20087;-77
2021/06/30 02:30:01;;;;;;;30.42;19.67;;;;;;;21.26;100.00;97195.38;5013889;28;20045;-77
2021/06/30 02:32:26;;;;;;;29.23;20.48;;;;;;;21.24;100.00;97191.97;5013963;28;20025;-78
2021/06/30 02:34:52;;;;;;;30.25;20.20;;;;;;;21.15;100.00;97189.41;5013860;28;20029;-78
2021/06/30 02:37:17;;;;;;;28.08;19.60;;;;;;;21.18;100.00;97194.53;5013972;28;20033;-78
2021/06/30 02:39:43;;;;;;;35.42;19.58;;;;;;;21.15;100.00;97203.88;5030413;28;20022;-78
2021/06/30 02:42:09;;;;;;;27.08;19.15;;;;;;;21.12;100.00;97193.34;5013730;28;20064;-79
2021/06/30 02:44:34;;;;;;;29.23;19.85;;;;;;;21.13;100.00;97194.19;5013899;28;20128;-79
2021/06/30 02:47:00;;;;;;;29.50;20.08;;;;;;;21.10;100.00;97189.09;5029923;28;20087;-79
2021/06/30 02:49:25;;;;;;;29.92;20.05;;;;;;;21.21;100.00;97200.47;5013689;28;20119;-79
2021/06/30 02:51:51;;;;;;;28.17;19.63;;;;;;;21.29;100.00;97191.44;5013603;28;20486;-79
2021/06/30 02:54:17;;;;;;;36.92;20.33;;;;;;;21.29;100.00;97200.47;5013742;28;20059;-79
2021/06/30 02:56:42;;;;;;;28.38;20.33;;;;;;;21.22;100.00;97206.78;5030414;28;20037;-79
2021/06/30 02:59:08;;;;;;;39.75;19.83;;;;;;;21.29;100.00;97207.78;5030657;28;20036;-78
2021/06/30 03:01:33;;;;;;;27.27;20.08;;;;;;;21.12;100.00;97189.75;5013521;28;20081;-78
2021/06/30 03:03:59;;;;;;;33.35;21.65;;;;;;;21.22;100.00;97188.59;5030113;28;20500;-80
2021/06/30 03:06:25;;;;;;;28.38;19.92;;;;;;;21.33;100.00;97198.25;5013807;28;20087;-80
2021/06/30 03:08:51;;;;;;;30.55;19.42;;;;;;;21.40;100.00;97193.84;5013731;28;20041;-80
2021/06/30 03:11:17;;;;;;;39.15;18.45;;;;;;;21.44;100.00;97201.47;5013833;28;20057;-80
2021/06/30 03:13:42;;;;;;;29.58;19.88;;;;;;;21.37;100.00;97199.63;5013590;28;20034;-79
2021/06/30 03:16:08;;;;;;;30.40;19.83;;;;;;;21.44;100.00;97182.44;5013089;28;20507;-80
2021/06/30 03:18:34;;;;;;;33.63;20.27;;;;;;;21.67;100.00;97200.78;5014472;28;20473;-79
2021/06/30 03:20:59;;;;;;;31.27;19.00;;;;;;;21.66;100.00;97193.66;5017571;28;20092;-79
2021/06/30 03:23:25;;;;;;;34.70;18.55;;;;;;;21.55;100.00;97195.72;5017368;28;20036;-80
2021/06/30 03:25:50;;;;;;;34.42;19.75;;;;;;;21.61;100.00;97203.19;5034585;28;20091;-80
2021/06/30 03:28:16;;;;;;;28.17;21.48;;;;;;;21.69;100.00;97205.03;5017135;28;20032;-79
2021/06/30 03:30:43;;;;;;;36.95;18.92;;;;;;;21.77;100.00;97210.50;5033806;28;20029;-79
2021/06/30 03:33:09;;;;;;;35.90;18.48;;;;;;;21.77;100.00;97207.75;5018908;28;20104;-80
2021/06/30 03:35:35;;;;;;;29.02;19.55;;;;;;;21.75;100.00;97198.06;5018140;28;20063;-79
2021/06/30 03:38:01;;;;;;;33.92;19.50;;;;;;;21.80;100.00;97201.13;5017208;28;20508;-78
2021/06/30 03:40:26;;;;;;;37.80;19.10;;;;;;;21.81;100.00;97189.22;5033875;28;20033;-79
2021/06/30 03:42:54;;;;;;;36.10;17.85;;;;;;;21.93;99.96;97209.63;5034408;28;20033;-78
2021/06/30 03:45:20;;;;;;;47.60;18.08;;;;;;;22.00;100.00;97203.31;5017193;28;20034;-79
2021/06/30 03:47:46;;;;;;;31.95;18.15;;;;;;;22.04;99.48;97199.22;5016733;28;20037;-79
2021/06/30 03:50:11;;;;;;;27.98;18.98;;;;;;;22.06;99.03;97213.50;5017012;28;20532;-80
2021/06/30 03:52:37;;;;;;;33.03;19.60;;;;;;;21.96;100.00;97201.97;5017176;28;20028;-79
2021/06/30 03:55:03;;;;;;;37.95;20.17;;;;;;;22.12;98.77;97212.81;5017030;28;20112;-78
2021/06/30 03:57:29;;;;;;;32.55;18.90;;;;;;;22.28;97.97;97220.06;5016745;28;20087;-79
2021/06/30 03:59:54;;;;;;;31.45;18.67;;;;;;;22.26;96.98;97207.66;5016895;28;20108;-79
2021/06/30 04:02:20;;;;;;;44.47;19.98;;;;;;;22.39;97.18;97210.69;5016436;28;20033;-79
2021/06/30 04:04:45;;;;;;;26.70;17.85;;;;;;;22.43;96.18;97214.72;5033616;28;20032;-79
2021/06/30 04:07:11;;;;;;;28.88;18.52;;;;;;;22.47;96.24;97216.09;5016431;28;20068;-79
2021/06/30 04:09:37;;;;;;;28.20;18.40;;;;;;;22.65;95.50;97214.00;5017090;28;20029;-79
2021/06/30 04:12:03;;;;;;;25.90;17.80;;;;;;;22.75;94.61;97216.50;5016299;28;20055;-79
2021/06/30 04:14:29;;;;;;;33.28;22.08;;;;;;;22.86;94.72;97208.75;5017286;28;20118;-80
2021/06/30 04:16:54;;;;;;;32.42;18.73;;;;;;;22.84;93.56;97207.25;5032610;28;20482;-79
2021/06/30 04:19:21;;;;;;;41.78;22.20;;;;;;;23.05;92.61;97210.16;5016239;28;20210;-79
2021/06/30 04:21:47;;;;;;;35.78;19.30;;;;;;;23.06;92.05;97207.28;5016605;28;20066;-79
2021/06/30 04:24:13;;;;;;;28.98;19.42;;;;;;;23.25;91.13;97216.00;5032203;28;20029;-78
2021/06/30 04:26:38;;;;;;;23.75;17.95;;;;;;;23.16;90.92;97202.41;5015935;28;20041;-79
2021/06/30 04:29:04;;;;;;;36.08;18.88;;;;;;;23.30;89.61;97203.50;5015489;28;20040;-79
2021/06/30 04:31:30;;;;;;;32.03;18.92;;;;;;;23.30;89.89;97208.97;5016265;28;20037;-80
2021/06/30 04:33:56;;;;;;;30.23;18.40;;;;;;;23.39;90.82;97212.47;5019999;28;20025;-79
2021/06/30 04:36:21;;;;;;;42.30;18.88;;;;;;;23.58;89.91;97203.81;5016207;28;20137;-79
2021/06/30 04:38:47;;;;;;;37.83;21.60;;;;;;;23.80;88.02;97211.13;5016281;28;20029;-79
2021/06/30 04:41:13;;;;;;;31.50;17.75;;;;;;;24.00;85.51;97211.41;5015879;28;20473;-79
2021/06/30 04:43:39;;;;;;;27.45;17.65;;;;;;;24.06;85.50;97210.66;5015579;28;20033;-80
2021/06/30 04:46:06;;;;;;;31.65;17.00;;;;;;;24.06;86.23;97213.41;5015779;28;20032;-78
2021/06/30 04:48:32;;;;;;;35.67;18.00;;;;;;;24.30;85.96;97217.81;5007585;28;20112;-78
2021/06/30 04:50:58;;;;;;;41.55;20.60;;;;;;;24.44;84.00;97206.84;5015333;28;20045;-77
2021/06/30 04:53:23;;;;;;;39.83;19.48;;;;;;;25.29;79.96;97209.78;5015405;28;20021;-78
2021/06/30 04:55:49;;;;;;;144.68;24.42;;;;;;;26.68;72.77;97226.31;5031908;28;20030;-78
2021/06/30 04:58:14;;;;;;;36.83;19.88;;;;;;;27.60;68.45;97229.41;5031917;28;20025;-79
2021/06/30 05:00:41;;;;;;;59.55;20.50;;;;;;;28.67;63.87;97238.28;5015090;28;20438;-78
2021/06/30 05:03:06;;;;;;;30.17;14.85;;;;;;;30.05;58.73;97233.75;5014948;28;20036;-79
2021/06/30 05:05:33;;;;;;;21.05;14.93;;;;;;;31.41;53.54;97250.97;5031661;28;20033;-77
2021/06/30 05:07:58;;;;;;;23.92;13.27;;;;;;;32.51;49.55;97255.06;5015207;28;20057;-78
2021/06/30 05:10:25;;;;;;;21.67;12.77;;;;;;;33.69;46.13;97254.63;5014793;28;20053;-78
2021/06/30 05:12:50;;;;;;;20.10;12.60;;;;;;;34.74;43.51;97264.00;5031522;28;20017;-78
2021/06/30 05:15:16;;;;;;;23.50;12.32;;;;;;;35.69;40.64;97271.16;5014737;28;20040;-78
2021/06/30 05:17:41;;;;;;;30.05;14.88;;;;;;;35.62;40.17;97276.97;5014846;28;20033;-78
2021/06/30 05:20:08;;;;;;;32.03;21.50;;;;;;;36.02;39.92;97275.72;5014870;28;20400;-78
2021/06/30 05:22:33;;;;;;;20.30;12.20;;;;;;;37.06;38.11;97271.34;5014726;28;20052;-79
2021/06/30 05:24:59;;;;;;;31.13;14.13;;;;;;;37.75;36.60;97271.09;5014994;28;20477;-78
2021/06/30 05:27:24;;;;;;;21.33;12.65;;;;;;;38.54;34.90;97279.13;5031291;28;20025;-78
2021/06/30 05:29:50;;;;;;;17.85;10.95;;;;;;;39.25;33.29;97271.53;5031267;28;20080;-78
2021/06/30 05:32:15;;;;;;;30.75;10.98;;;;;;;39.86;32.17;97274.91;5014194;28;20087;-78
2021/06/30 05:34:41;;;;;;;25.33;11.25;;;;;;;40.27;32.04;97273.53;5014275;28;20029;-77
2021/06/30 05:37:07;;;;;;;34.95;11.65;;;;;;;40.49;30.97;97278.72;5014638;28;20034;-80
2021/06/30 05:39:32;;;;;;;25.20;10.07;;;;;;;40.75;30.55;97280.22;5030655;28;20029;-78
2021/06/30 05:41:58;;;;;;;19.00;11.13;;;;;;;40.99;30.43;97281.13;5013858;28;20033;-80
2021/06/30 05:44:23;;;;;;;20.08;11.43;;;;;;;41.40;30.03;97272.31;5032258;28;20060;-82
2021/06/30 05:46:49;;;;;;;31.58;11.75;;;;;;;41.51;29.69;97273.84;5031054;28;20516;-80
2021/06/30 05:49:16;;;;;;;27.38;11.10;;;;;;;41.70;29.36;97279.50;5014538;28;20037;-81
2021/06/30 05:51:42;;;;;;;11.82;8.63;;;;;;;41.38;27.90;97266.16;5006626;28;20029;-80
2021/06/30 05:54:09;;;;;;;15.52;8.95;;;;;;;41.54;28.07;97276.88;5030790;28;20022;-77
2021/06/30 05:56:35;;;;;;;17.60;10.00;;;;;;;41.08;28.93;97265.31;5013939;28;20029;-78
2021/06/30 05:59:00;;;;;;;12.18;9.07;;;;;;;39.92;29.59;97259.75;5014145;28;20033;-78
2021/06/30 06:01:26;;;;;;;24.63;9.48;;;;;;;39.30;30.28;97268.69;5030530;28;20056;-78
2021/06/30 06:03:52;;;;;;;8.88;7.65;;;;;;;36.66;33.66;97257.94;5014773;28;20501;-80
2021/06/30 06:06:17;;;;;;;21.40;8.35;;;;;;;35.98;34.72;97261.47;5015663;28;20018;-79
2021/06/30 06:08:43;;;;;;;12.88;8.63;;;;;;;35.08;36.09;97252.78;5014962;28;20371;-78
2021/06/30 06:11:12;;;;;;;10.02;7.70;;;;;;;35.47;36.35;97268.34;5032610;28;20469;-78
2021/06/30 06:13:44;;;;;;;12.35;8.50;;;;;;;35.83;36.07;97259.38;5014279;28;20079;-78
2021/06/30 06:16:16;;;;;;;11.18;8.60;;;;;;;36.20;35.42;97261.44;5014368;28;20461;-78
2021/06/30 06:18:41;;;;;;;16.40;8.63;;;;;;;36.23;34.86;97258.09;5030779;28;20148;-78
2021/06/30 06:21:07;;;;;;;11.68;7.95;;;;;;;35.84;35.04;97249.88;5014145;28;20493;-79
2021/06/30 06:23:33;;;;;;;14.90;8.23;;;;;;;36.40;34.93;97248.50;5013931;28;20485;-85
2021/06/30 06:25:58;;;;;;;12.32;7.93;;;;;;;36.93;34.62;97253.09;5014657;28;20412;-86
2021/06/30 06:28:29;;;;;;;15.00;7.88;;;;;;;37.28;34.14;97254.44;5013680;28;20413;-87
2021/06/30 06:30:54;;;;;;;9.60;7.90;;;;;;;37.65;32.42;97238.41;5014688;28;20017;-87
2021/06/30 06:33:21;;;;;;;10.68;7.90;;;;;;;37.20;33.39;97239.03;5014130;28;20210;-88
2021/06/30 06:35:47;;;;;;;8.57;7.78;;;;;;;37.06;33.42;97242.59;5014177;28;20029;-88
2021/06/30 06:38:13;;;;;;;10.55;8.23;;;;;;;37.03;33.83;97243.13;5014048;28;20044;-88
2021/06/30 06:40:39;;;;;;;14.45;9.20;;;;;;;37.19;33.60;97230.94;5030060;28;20065;-77
2021/06/30 06:43:08;;;;;;;12.07;8.23;;;;;;;37.99;33.28;97259.19;5029902;28;20061;-75
2021/06/30 06:45:33;;;;;;;16.63;9.65;;;;;;;38.52;32.74;97251.41;5031342;28;20029;-80
2021/06/30 06:47:59;;;;;;;8.40;7.43;;;;;;;39.31;31.44;97251.63;5013981;28;20049;-91
2021/06/30 06:50:25;;;;;;;15.27;7.95;;;;;;;38.38;31.77;97239.13;5014063;28;20022;-90
2021/06/30 06:52:50;;;;;;;23.25;7.80;;;;;;;38.02;32.69;97243.84;5013409;28;20044;-81
2021/06/30 06:55:16;;;;;;;16.52;9.27;;;;;;;38.20;32.96;97239.66;5016936;28;20025;-81
2021/06/30 06:57:42;;;;;;;14.63;8.10;;;;;;;39.14;30.60;97236.22;5018141;28;20124;-81
2021/06/30 07:00:08;;;;;;;12.23;7.40;;;;;;;39.34;30.40;97244.59;5033842;28;20420;-83
2021/06/30 07:02:33;;;;;;;9.77;7.82;;;;;;;38.87;30.66;97231.84;5017706;28;20041;-85
2021/06/30 07:04:59;;;;;;;24.10;8.10;;;;;;;39.50;29.70;97226.63;5034331;28;20021;-84
2021/06/30 07:07:25;;;;;;;14.20;7.50;;;;;;;40.23;28.60;97221.16;5017498;28;20031;-84
2021/06/30 07:09:50;;;;;;;12.98;7.38;;;;;;;40.53;28.49;97226.53;5017197;28;20447;-84
2021/06/30 07:12:16;;;;;;;10.30;8.20;;;;;;;40.59;28.25;97222.56;5017651;28;20504;-84
2021/06/30 07:14:42;;;;;;;11.20;7.72;;;;;;;40.31;28.65;97224.16;5034929;28;20507;-81
2021/06/30 07:17:08;;;;;;;13.55;7.30;;;;;;;39.96;28.85;97221.63;5017394;28;20075;-87
2021/06/30 07:19:34;;;;;;;18.20;7.82;;;;;;;40.07;29.26;97224.06;5017350;28;20036;-87
2021/06/30 07:21:59;;;;;;;11.52;8.40;;;;;;;40.70;28.95;97221.34;5015736;28;20063;-84
2021/06/30 07:24:25;;;;;;;11.05;7.68;;;;;;;40.99;27.67;97219.38;5014908;28;20416;-90
2021/06/30 07:26:51;;;;;;;15.02;7.88;;;;;;;41.65;27.68;97227.03;5015060;28;20389;-87
2021/06/30 07:29:16;;;;;;;14.88;7.78;;;;;;;42.08;27.25;97214.63;5015184;28;20068;-87
2021/06/30 07:31:42;;;;;;;9.68;7.65;;;;;;;42.35;26.64;97221.50;5014759;28;20517;-88
2021/06/30 07:34:08;;;;;;;9.88;7.63;;;;;;;41.20;27.99;97219.97;5014877;28;20056;-86
2021/06/30 07:36:33;;;;;;;11.27;7.70;;;;;;;40.88;28.14;97212.16;5014660;28;20120;-86
2021/06/30 07:39:07;;;;;;;12.50;7.90;;;;;;;40.93;28.35;97220.56;5031447;28;20112;-87
2021/06/30 07:41:33;;;;;;;14.32;8.00;;;;;;;40.54;28.21;97206.63;5015526;28;20433;-86
2021/06/30 07:44:00;;;;;;;9.55;7.38;;;;;;;40.80;27.99;97211.97;5015095;28;20029;-89
2021/06/30 07:46:26;;;;;;;55.53;9.38;;;;;;;41.05;29.06;97217.34;5018778;28;20056;-86
2021/06/30 07:48:51;;;;;;;12.50;8.07;;;;;;;41.39;27.75;97206.84;5014792;28;20076;-88
2021/06/30 07:51:17;;;;;;;15.45;7.13;;;;;;;41.12;27.19;97206.59;5016784;28;20437;-87
2021/06/30 07:53:43;;;;;;;9.38;7.30;;;;;;;42.02;26.53;97203.75;5016345;28;20038;-87
2021/06/30 07:56:11;;;;;;;20.05;7.85;;;;;;;41.03;27.08;97198.00;5015358;28;20045;-88
2021/06/30 07:58:37;;;;;;;10.88;7.47;;;;;;;40.46;27.73;97197.94;5014628;28;20087;-79
2021/06/30 08:01:03;;;;;;;21.73;7.80;;;;;;;40.41;28.46;97203.63;5029223;28;20059;-78
2021/06/30 08:03:29;;;;;;;19.38;7.55;;;;;;;40.47;27.62;97199.63;5030387;28;20033;-79
2021/06/30 08:05:54;;;;;;;14.88;7.88;;;;;;;40.54;27.74;97194.56;5029483;28;20575;-79
2021/06/30 08:08:20;;;;;;;10.68;7.22;;;;;;;40.90;26.91;97197.81;5029962;28;20508;-79
2021/06/30 08:10:45;;;;;;;14.82;7.22;;;;;;;40.92;27.20;97199.19;5030129;28;20087;-80
2021/06/30 08:13:11;;;;;;;22.02;7.88;;;;;;;40.75;28.67;97210.06;5029630;28;20567;-79
2021/06/30 08:15:36;;;;;;;12.02;7.63;;;;;;;40.41;27.55;97189.59;5013887;28;20034;-79
2021/06/30 08:18:02;;;;;;;12.93;6.70;;;;;;;40.66;27.02;97185.75;5029810;28;20113;-79
2021/06/30 08:20:27;;;;;;;10.95;6.47;;;;;;;40.88;27.22;97194.50;5029875;28;20091;-79
2021/06/30 08:22:53;;;;;;;20.40;7.40;;;;;;;40.76;26.95;97192.09;5029573;28;20041;-79
2021/06/30 08:25:19;;;;;;;15.23;7.07;;;;;;;40.43;27.87;97187.31;5029311;28;20033;-79
2021/06/30 08:27:45;;;;;;;22.90;10.85;;;;;;;41.07;27.40;97190.63;5029763;28;20073;-80
2021/06/30 08:30:11;;;;;;;8.52;5.95;;;;;;;40.22;28.21;97194.25;5012994;28;20063;-79
2021/06/30 08:32:37;;;;;;;10.05;6.93;;;;;;;39.96;29.10;97193.59;5012805;28;20029;-79
2021/06/30 08:35:03;;;;;;;14.18;7.53;;;;;;;40.45;29.00;97199.09;5030835;28;20451;-79
2021/06/30 08:37:32;;;;;;;11.95;6.97;;;;;;;41.05;27.10;97176.06;5029604;28;20029;-79
2021/06/30 08:39:58;;;;;;;12.02;6.90;;;;;;;41.28;26.52;97179.16;5013578;28;20056;-79
2021/06/30 08:42:23;;;;;;;15.68;7.65;;;;;;;41.08;27.47;97183.88;5012881;28;20076;-79
2021/06/30 08:44:49;;;;;;;10.70;6.32;;;;;;;40.92;26.95;97181.50;5029273;28;20021;-79
2021/06/30 08:47:15;;;;;;;10.35;6.70;;;;;;;40.05;28.11;97170.25;5029051;28;20033;-79
2021/06/30 08:49:43;;;;;;;13.27;7.05;;;;;;;39.36;29.30;97159.19;5029414;28;20770;-79
2021/06/30 08:52:11;;;;;;;23.55;6.72;;;;;;;40.11;28.33;97185.09;5029005;28;20021;-80
2021/06/30 08:54:42;;;;;;;13.50;7.05;;;;;;;41.14;27.51;97184.66;5012942;28;20029;-79
2021/06/30 08:57:08;;;;;;;16.05;7.10;;;;;;;41.17;27.00;97171.97;5009900;28;20025;-79
2021/06/30 08:59:35;;;;;;;10.73;6.80;;;;;;;40.64;28.07;97183.22;5012715;28;20113;-79
2021/06/30 09:02:00;;;;;;;19.45;7.60;;;;;;;41.01;26.90;97180.59;5028885;28;20513;-79
2021/06/30 09:04:26;;;;;;;12.80;6.45;;;;;;;41.60;27.11;97171.72;5028600;28;20115;-79
2021/06/30 09:06:52;;;;;;;17.35;6.82;;;;;;;42.15;25.82;97177.63;5012306;28;20405;-79
2021/06/30 09:09:18;;;;;;;10.50;6.32;;;;;;;42.07;25.57;97167.94;5012183;28;20470;-79
2021/06/30 09:11:54;;;;;;;11.85;6.28;;;;;;;42.59;25.37;97174.41;5029075;28;20022;-79
2021/06/30 09:14:25;;;;;;;12.48;6.65;;;;;;;43.05;24.82;97177.19;5012261;28;20489;-80
2021/06/30 09:19:53;;;;;;;11.73;6.43;;;;;;;42.40;25.96;97180.06;5028751;28;20065;-80
2021/06/30 09:22:21;;;;;;;9.68;6.45;;;;;;;42.42;25.59;97174.97;5011896;28;20040;-79
2021/06/30 09:24:48;;;;;;;15.75;6.93;;;;;;;41.51;26.85;97169.88;5012024;28;20397;-79
2021/06/30 09:27:14;;;;;;;13.43;7.07;;;;;;;41.71;27.07;97169.59;5011950;28;20134;-79
2021/06/30 09:29:42;;;;;;;16.25;6.88;;;;;;;42.33;26.68;97171.19;5028637;28;20036;-79
2021/06/30 09:32:17;;;;;;;10.90;6.82;;;;;;;41.96;26.80;97160.78;5028270;28;20024;-79
2021/06/30 09:34:43;;;;;;;12.93;7.10;;;;;;;41.53;27.85;97156.38;5028448;28;20076;-79
2021/06/30 09:37:11;;;;;;;10.38;7.63;;;;;;;41.82;27.94;97159.06;5011705;28;20021;-78
2021/06/30 09:39:51;;;;;;;10.68;6.95;;;;;;;42.34;26.60;97155.97;5029551;28;20033;-80
2021/06/30 09:42:17;;;;;;;13.82;7.32;;;;;;;42.74;26.05;97150.75;5028137;28;20029;-80
2021/06/30 09:44:43;;;;;;;11.52;6.90;;;;;;;44.04;25.29;97149.94;5029741;28;20055;-78
2021/06/30 09:47:09;;;;;;;11.70;6.72;;;;;;;43.37;25.20;97145.31;5027985;28;20172;-79
2021/06/30 09:49:39;;;;;;;10.23;7.28;;;;;;;42.25;26.74;97148.53;5011322;28;20025;-79
2021/06/30 09:52:18;;;;;;;15.48;7.00;;;;;;;42.49;26.29;97146.41;5011977;28;20029;-79
2021/06/30 09:54:49;;;;;;;18.98;7.60;;;;;;;42.27;26.06;97149.09;5012420;28;20021;-79
2021/06/30 09:57:16;;;;;;;14.35;7.57;;;;;;;41.97;26.61;97145.59;5027857;28;20496;-79
2021/06/30 09:59:46;;;;;;;13.40;7.18;;;;;;;42.38;26.02;97128.06;5011406;28;20063;-79
2021/06/30 10:02:17;;;;;;;16.02;6.47;;;;;;;41.70;26.52;97133.34;5011127;28;20022;-79
2021/06/30 10:04:56;;;;;;;;;;;;;;;41.59;27.41;97127.06;5023092;28;20033;-79
2021/06/30 10:07:24;;;;;;;14.65;6.82;;;;;;;41.38;27.63;97129.31;5027449;28;19979;-79
2021/06/30 10:09:50;;;;;;;21.13;7.93;;;;;;;41.55;27.59;97126.84;5010964;28;20032;-78
2021/06/30 10:12:17;;;;;;;17.30;6.65;;;;;;;41.45;27.59;97115.72;5028855;28;20033;-78
2021/06/30 10:14:46;;;;;;;12.35;7.10;;;;;;;41.62;27.41;97115.22;5011004;28;20080;-78
2021/06/30 10:17:13;;;;;;;14.10;7.32;;;;;;;41.63;27.94;97128.09;5010917;28;20037;-79
2021/06/30 10:19:40;;;;;;;10.38;7.28;;;;;;;42.42;26.49;97115.03;5010839;28;20470;-79
2021/06/30 10:22:07;;;;;;;13.93;7.75;;;;;;;41.92;27.70;97128.81;5027510;28;20037;-79
2021/06/30 10:24:34;;;;;;;14.13;6.72;;;;;;;41.90;26.60;97128.25;5011130;28;20036;-80
2021/06/30 10:27:00;;;;;;;16.05;7.43;;;;;;;41.45;27.42;97126.13;5010622;28;20087;-79
2021/06/30 10:29:28;;;;;;;16.25;6.82;;;;;;;41.42;27.41;97126.72;5027399;28;20033;-78
2021/06/30 10:32:04;;;;;;;12.93;7.00;;;;;;;41.56;27.00;97110.81;5027311;28;20469;-79
2021/06/30 10:34:35;;;;;;;18.40;7.00;;;;;;;42.39;27.52;97121.28;5005454;28;20037;-78
2021/06/30 10:37:00;;;;;;;15.05;6.72;;;;;;;43.99;24.94;97113.41;5027183;28;20036;-79
2021/06/30 10:39:35;;;;;;;14.93;7.07;;;;;;;43.97;24.56;97107.25;5010712;28;20029;-79
2021/06/30 10:42:14;;;;;;;13.07;7.00;;;;;;;44.10;24.75;97095.06;5028177;28;20508;-78
2021/06/30 10:44:49;;;;;;;24.45;7.43;;;;;;;44.85;23.85;97101.84;5028323;28;20504;-78
2021/06/30 10:47:45;;;;;;;10.55;6.35;;;;;;;44.47;23.86;97095.81;5028639;28;20025;-79
2021/06/30 10:50:17;;;;;;;18.65;6.43;;;;;;;43.66;25.06;97086.53;5010626;28;20025;-78
2021/06/30 10:52:46;;;;;;;9.45;6.07;;;;;;;42.88;25.36;97086.84;5028630;28;20022;-78
2021/06/30 10:55:40;;;;;;;14.27;6.88;;;;;;;42.86;26.08;97094.75;5026720;28;20481;-79
2021/06/30 11:01:04;;;;;;;18.25;7.15;;;;;;;42.75;26.18;97080.09;5028233;28;20056;-78
2021/06/30 11:03:46;;;;;;;10.95;6.80;;;;;;;42.98;25.66;97081.88;5010605;28;20563;-78
2021/06/30 11:06:18;;;;;;;14.82;7.05;;;;;;;42.33;26.62;97089.59;5026753;28;20587;-79
2021/06/30 11:08:49;;;;;;;14.75;7.28;;;;;;;42.55;26.83;97081.28;5026666;28;20456;-79
2021/06/30 11:11:27;;;;;;;14.70;6.72;;;;;;;43.28;25.46;97071.94;5026607;28;20035;-79
2021/06/30 11:14:15;;;;;;;17.70;6.80;;;;;;;43.66;25.24;97069.63;5028129;28;20022;-79
2021/06/30 11:16:44;;;;;;;14.82;7.32;;;;;;;43.68;24.92;97061.72;5026792;28;20029;-79
2021/06/30 11:19:16;;;;;;;15.07;7.47;;;;;;;43.71;24.59;97055.44;5028052;28;20029;-80
2021/06/30 11:22:04;;;;;;;9.55;6.78;;;;;;;43.78;25.11;97055.03;5027584;28;20041;-79
2021/06/30 11:24:36;;;;;;;13.32;6.57;;;;;;;42.93;25.32;97062.25;5012481;28;20556;-79